Time;durP1;ratioP1;P1;durP2;ratioP2;P2;SDS_P1;SDS_P2;PMS_P1;PMS_P2;Temp;Humidity;BMP_temperature;BMP_pressure;BME280_temperature;BME280_humidity;BME280_pressure;Samples;Min_cycle;Max_cycle;Signal;HPM_P1;HPM_P2
2021/10/10 00:00:52;;;;;;;35.03;22.40;;;10.30;90.50;;;;;;5057061;28;20025;-78
2021/10/10 00:03:17;;;;;;;36.70;23.75;;;10.30;90.40;;;;;;5073555;28;20033;-79
2021/10/10 00:05:43;;;;;;;36.03;24.23;;;10.20;90.40;;;;;;5062046;28;20021;-77
2021/10/10 00:08:09;;;;;;;35.53;24.58;;;10.20;90.50;;;;;;5059709;28;20068;-78
2021/10/10 00:10:35;;;;;;;34.53;24.33;;;10.20;90.40;;;;;;5055976;28;20032;-77
2021/10/10 00:13:01;;;;;;;34.70;24.00;;;10.20;90.50;;;;;;5074076;28;20025;-78
2021/10/10 00:15:28;;;;;;;36.55;25.45;;;10.20;90.50;;;;;;5074264;28;20108;-78
2021/10/10 00:17:54;;;;;;;35.25;23.00;;;10.20;90.50;;;;;;5073126;28;20060;-77
2021/10/10 00:20:20;;;;;;;36.13;25.40;;;10.20;90.60;;;;;;5073615;28;20035;-77
2021/10/10 00:22:46;;;;;;;41.15;26.35;;;10.10;90.80;;;;;;5055673;28;20357;-77
2021/10/10 00:25:11;;;;;;;38.17;25.65;;;10.10;90.90;;;;;;5055871;28;20024;-78
2021/10/10 00:27:38;;;;;;;39.78;25.63;;;10.10;90.90;;;;;;5055830;28;20025;-78
2021/10/10 00:30:05;;;;;;;40.15;25.88;;;10.10;91.00;;;;;;5055883;28;20143;-76
2021/10/10 00:32:31;;;;;;;37.38;25.88;;;10.10;91.10;;;;;;5055910;28;20020;-78
2021/10/10 00:34:57;;;;;;;37.05;26.33;;;10.10;91.20;;;;;;5063758;28;20302;-78
2021/10/10 00:37:23;;;;;;;38.40;24.95;;;10.10;91.20;;;;;;5074544;28;20035;-78
2021/10/10 00:39:48;;;;;;;42.50;25.17;;;10.10;91.50;;;;;;5055688;28;20108;-77
2021/10/10 00:42:14;;;;;;;37.88;25.83;;;10.00;91.20;;;;;;5055213;28;20469;-78
2021/10/10 00:44:43;;;;;;;41.10;25.90;;;10.00;91.20;;;;;;5076121;28;20104;-79
2021/10/10 00:47:10;;;;;;;38.28;25.10;;;10.00;91.20;;;;;;5055409;28;20048;-78
2021/10/10 00:49:36;;;;;;;38.92;26.55;;;9.90;91.20;;;;;;5057491;28;20060;-77
2021/10/10 00:52:03;;;;;;;40.25;26.45;;;9.90;91.50;;;;;;5064004;28;20032;-79
2021/10/10 00:54:31;;;;;;;36.25;26.13;;;9.90;91.30;;;;;;5061087;28;20021;-78
2021/10/10 00:56:57;;;;;;;41.90;26.75;;;9.90;91.40;;;;;;5073589;28;20050;-78
2021/10/10 00:59:24;;;;;;;38.85;24.55;;;9.90;91.30;;;;;;5072854;28;20175;-78
2021/10/10 01:01:50;;;;;;;38.83;25.83;;;9.80;91.20;;;;;;5072825;28;20354;-78
2021/10/10 01:04:16;;;;;;;38.97;26.35;;;9.80;91.20;;;;;;5054691;28;20025;-78
2021/10/10 01:06:42;;;;;;;36.67;25.50;;;9.80;91.20;;;;;;5073064;28;20029;-78
2021/10/10 01:09:07;;;;;;;37.92;25.00;;;9.70;91.20;;;;;;5054564;28;20031;-78
2021/10/10 01:11:35;;;;;;;38.10;27.15;;;9.80;91.30;;;;;;5072897;28;20028;-78
2021/10/10 01:14:01;;;;;;;41.38;27.35;;;9.70;91.20;;;;;;5073014;28;20036;-78
2021/10/10 01:16:27;;;;;;;35.50;25.17;;;9.70;91.20;;;;;;5054761;28;20025;-76
2021/10/10 01:18:59;;;;;;;35.83;26.60;;;9.70;91.20;;;;;;5055208;28;20484;-77
2021/10/10 01:21:24;;;;;;;38.88;25.85;;;9.70;91.30;;;;;;5055446;28;20024;-76
2021/10/10 01:23:50;;;;;;;41.63;25.80;;;9.60;91.30;;;;;;5055538;28;20028;-76
2021/10/10 01:26:17;;;;;;;42.75;27.38;;;9.60;91.40;;;;;;5054826;28;20103;-77
2021/10/10 01:28:43;;;;;;;39.40;27.48;;;9.60;91.70;;;;;;5073640;28;20029;-77
2021/10/10 01:31:09;;;;;;;40.80;27.73;;;9.60;91.40;;;;;;5055901;28;20028;-77
2021/10/10 01:33:35;;;;;;;38.90;27.27;;;9.60;91.50;;;;;;5080530;28;20070;-77
2021/10/10 01:36:01;;;;;;;40.70;27.90;;;9.50;91.40;;;;;;5076589;28;20048;-77
2021/10/10 01:38:26;;;;;;;39.00;27.02;;;9.50;91.40;;;;;;5075581;28;20029;-76
2021/10/10 01:40:52;;;;;;;39.60;28.10;;;9.50;91.50;;;;;;5082002;28;20024;-76
2021/10/10 01:43:18;;;;;;;39.92;27.88;;;9.50;91.40;;;;;;5073063;28;20104;-77
2021/10/10 01:45:44;;;;;;;36.85;26.20;;;9.50;91.50;;;;;;5055081;28;20048;-77
2021/10/10 01:48:10;;;;;;;39.35;27.30;;;9.40;91.50;;;;;;5072311;28;20415;-77
2021/10/10 01:50:37;;;;;;;43.08;28.50;;;9.50;91.70;;;;;;5072820;28;20020;-76
2021/10/10 01:53:03;;;;;;;43.50;27.90;;;9.40;91.70;;;;;;5072164;28;20029;-76
2021/10/10 01:55:29;;;;;;;38.22;27.25;;;9.40;91.80;;;;;;5054707;28;20021;-77
2021/10/10 01:57:55;;;;;;;41.38;27.30;;;9.40;91.80;;;;;;5054841;28;20030;-76
2021/10/10 02:00:20;;;;;;;40.55;27.35;;;9.40;91.70;;;;;;5071971;28;20520;-78
2021/10/10 02:02:46;;;;;;;43.47;27.95;;;9.40;91.70;;;;;;5054255;28;20028;-77
2021/10/10 02:05:12;;;;;;;44.97;30.05;;;9.30;91.60;;;;;;5055007;28;20476;-76
2021/10/10 02:07:38;;;;;;;44.63;30.08;;;9.30;91.70;;;;;;5073229;28;20028;-76
2021/10/10 02:10:06;;;;;;;48.25;31.13;;;9.30;91.70;;;;;;5054021;28;20106;-77
2021/10/10 02:12:31;;;;;;;40.50;28.42;;;9.30;91.60;;;;;;5054194;28;20021;-77
2021/10/10 02:14:57;;;;;;;40.38;28.38;;;9.30;91.70;;;;;;5054516;28;20449;-78
2021/10/10 02:17:22;;;;;;;48.38;31.17;;;9.30;91.60;;;;;;5056777;28;20025;-78
2021/10/10 02:19:48;;;;;;;44.10;28.70;;;9.30;91.60;;;;;;5058141;28;20021;-77
2021/10/10 02:22:14;;;;;;;43.40;28.85;;;9.30;91.60;;;;;;5057775;28;20115;-77
2021/10/10 02:24:39;;;;;;;49.38;29.88;;;9.30;91.60;;;;;;5059626;28;20477;-77
2021/10/10 02:27:05;;;;;;;44.08;29.05;;;9.20;91.50;;;;;;5057371;28;20119;-76
2021/10/10 02:29:31;;;;;;;40.38;27.88;;;9.20;91.60;;;;;;5057655;28;20028;-77
2021/10/10 02:31:58;;;;;;;41.20;27.42;;;9.20;91.60;;;;;;5057778;28;20029;-76
2021/10/10 02:34:24;;;;;;;40.90;28.77;;;9.20;91.60;;;;;;5058086;28;20013;-77
2021/10/10 02:36:49;;;;;;;41.20;29.40;;;9.20;91.60;;;;;;5080370;28;20108;-77
2021/10/10 02:39:15;;;;;;;46.63;31.25;;;9.20;91.60;;;;;;5057186;28;20028;-77
2021/10/10 02:41:41;;;;;;;44.80;29.60;;;9.10;91.90;;;;;;5057667;28;20473;-77
2021/10/10 02:44:07;;;;;;;46.90;31.65;;;9.10;91.60;;;;;;5075218;28;20151;-77
2021/10/10 02:46:33;;;;;;;46.83;33.13;;;9.10;91.60;;;;;;5075303;28;20107;-77
2021/10/10 02:49:00;;;;;;;53.33;30.63;;;9.10;91.60;;;;;;5074732;28;20029;-77
2021/10/10 02:51:26;;;;;;;46.50;32.28;;;9.10;91.60;;;;;;5057219;28;20024;-77
2021/10/10 02:53:51;;;;;;;44.08;31.25;;;9.00;91.60;;;;;;5057323;28;20017;-77
2021/10/10 02:56:17;;;;;;;51.97;31.73;;;9.00;91.70;;;;;;5075224;28;20055;-77
2021/10/10 02:58:43;;;;;;;46.08;32.30;;;9.00;91.60;;;;;;5057145;28;20251;-78
2021/10/10 03:01:10;;;;;;;48.03;31.98;;;9.00;91.70;;;;;;5075269;28;20024;-77
2021/10/10 03:03:35;;;;;;;46.20;32.08;;;9.00;91.80;;;;;;5075429;28;20546;-77
2021/10/10 03:06:01;;;;;;;48.55;33.40;;;8.90;91.80;;;;;;5056968;28;20029;-77
2021/10/10 03:08:26;;;;;;;47.65;32.75;;;8.90;92.00;;;;;;5074733;28;20488;-77
2021/10/10 03:10:52;;;;;;;51.58;32.95;;;8.90;92.00;;;;;;5057394;28;20119;-78
2021/10/10 03:13:18;;;;;;;49.53;32.92;;;8.90;92.10;;;;;;5057187;28;20047;-77
2021/10/10 03:15:43;;;;;;;47.42;32.97;;;8.90;92.10;;;;;;5057743;28;20050;-78
2021/10/10 03:18:09;;;;;;;48.53;33.97;;;8.90;92.10;;;;;;5075547;28;20039;-78
2021/10/10 03:20:34;;;;;;;52.55;34.35;;;8.80;92.00;;;;;;5075542;28;20060;-77
2021/10/10 03:23:00;;;;;;;52.13;34.67;;;8.80;92.00;;;;;;5057967;28;20035;-78
2021/10/10 03:25:25;;;;;;;51.15;34.00;;;8.80;92.00;;;;;;5085653;28;20031;-77
2021/10/10 03:27:51;;;;;;;49.63;34.42;;;8.80;92.10;;;;;;5095418;28;20016;-77
2021/10/10 03:30:17;;;;;;;52.10;33.97;;;8.80;92.10;;;;;;5076497;28;20028;-77
2021/10/10 03:32:42;;;;;;;50.65;34.03;;;8.80;92.10;;;;;;5074410;28;20024;-78
2021/10/10 03:35:09;;;;;;;46.72;33.03;;;8.80;92.10;;;;;;5070406;28;20029;-77
2021/10/10 03:37:37;;;;;;;53.38;37.63;;;8.70;92.10;;;;;;5058079;28;20544;-78
2021/10/10 03:40:09;;;;;;;52.70;35.45;;;8.70;92.20;;;;;;5074908;28;20025;-78
2021/10/10 03:42:34;;;;;;;53.83;37.53;;;8.70;92.20;;;;;;5074444;28;20428;-76
2021/10/10 03:45:00;;;;;;;58.65;37.00;;;8.70;92.40;;;;;;5057190;28;20074;-78
2021/10/10 03:47:26;;;;;;;56.00;38.83;;;8.70;92.80;;;;;;5056941;28;20362;-76
2021/10/10 03:49:51;;;;;;;54.92;37.20;;;8.70;92.50;;;;;;5056835;28;20029;-76
2021/10/10 03:52:17;;;;;;;56.05;37.80;;;8.70;92.50;;;;;;5056723;28;20024;-77
2021/10/10 03:57:20;;;;;;;59.17;39.42;;;8.70;92.60;;;;;;5075735;28;20040;-76
2021/10/10 03:59:48;;;;;;;54.10;35.83;;;8.60;92.60;;;;;;5056817;28;20358;-77
2021/10/10 04:02:14;;;;;;;57.30;37.88;;;8.60;92.50;;;;;;5057452;28;20036;-76
2021/10/10 04:04:40;;;;;;;54.75;36.72;;;8.60;92.50;;;;;;5080392;28;20138;-77
2021/10/10 04:07:05;;;;;;;51.50;35.58;;;8.60;92.40;;;;;;5073926;28;20043;-76
2021/10/10 04:09:31;;;;;;;53.67;35.47;;;8.60;92.50;;;;;;5090847;28;20472;-77
2021/10/10 04:11:56;;;;;;;58.47;37.03;;;8.60;92.50;;;;;;5085678;28;20027;-76
2021/10/10 04:14:22;;;;;;;55.50;37.20;;;8.60;92.50;;;;;;5059158;28;20089;-76
2021/10/10 04:16:48;;;;;;;52.88;36.65;;;8.50;92.50;;;;;;5056224;28;20031;-76
2021/10/10 04:19:13;;;;;;;50.40;34.92;;;8.50;92.50;;;;;;5055532;28;20032;-77
2021/10/10 04:21:39;;;;;;;55.17;36.42;;;8.50;92.40;;;;;;5055378;28;20452;-77
2021/10/10 04:24:04;;;;;;;51.22;34.95;;;8.50;92.40;;;;;;5055703;28;20021;-77
2021/10/10 04:26:30;;;;;;;50.83;35.13;;;8.50;92.30;;;;;;5055053;28;20381;-76
2021/10/10 04:28:55;;;;;;;50.80;36.05;;;8.40;92.30;;;;;;5055609;28;20027;-75
2021/10/10 04:31:21;;;;;;;54.58;36.47;;;8.40;92.30;;;;;;5073139;28;20548;-76
2021/10/10 04:33:47;;;;;;;52.13;36.20;;;8.40;92.30;;;;;;5055221;28;20020;-76
2021/10/10 04:36:12;;;;;;;52.42;35.70;;;8.40;92.30;;;;;;5073308;28;20512;-76
2021/10/10 04:38:38;;;;;;;54.67;38.42;;;8.40;92.30;;;;;;5057326;28;20027;-76
2021/10/10 04:41:04;;;;;;;52.00;36.47;;;8.40;92.30;;;;;;5055207;28;20123;-77
2021/10/10 04:43:30;;;;;;;54.55;37.72;;;8.40;92.30;;;;;;5054948;28;20111;-77
2021/10/10 04:45:55;;;;;;;51.90;36.47;;;8.30;92.30;;;;;;5055052;28;20071;-76
2021/10/10 04:48:21;;;;;;;55.33;36.35;;;8.30;92.30;;;;;;5072623;28;20032;-76
2021/10/10 04:50:46;;;;;;;54.35;37.53;;;8.30;92.20;;;;;;5054948;28;20036;-76
2021/10/10 04:53:12;;;;;;;49.55;34.75;;;8.30;92.20;;;;;;5072713;28;20101;-77
2021/10/10 04:55:38;;;;;;;50.55;36.53;;;8.20;92.20;;;;;;5072952;28;20373;-77
2021/10/10 04:58:03;;;;;;;57.03;38.58;;;8.20;92.10;;;;;;5054900;28;20024;-77
2021/10/10 05:00:29;;;;;;;54.20;34.88;;;8.20;92.50;;;;;;5054714;28;20457;-77
2021/10/10 05:02:55;;;;;;;57.90;38.17;;;8.20;92.20;;;;;;5054837;28;20063;-77
2021/10/10 05:05:20;;;;;;;59.10;38.33;;;8.20;92.30;;;;;;5054644;28;20036;-77
2021/10/10 05:07:46;;;;;;;56.88;38.60;;;8.20;92.30;;;;;;5072350;28;20079;-77
2021/10/10 05:10:11;;;;;;;53.97;36.80;;;8.10;92.30;;;;;;5072607;28;20028;-77
2021/10/10 05:12:37;;;;;;;56.78;37.00;;;8.10;92.30;;;;;;5054805;28;20067;-78
2021/10/10 05:15:05;;;;;;;55.60;36.05;;;8.10;92.30;;;;;;5055272;28;20044;-77
2021/10/10 05:17:31;;;;;;;62.15;37.40;;;8.10;92.30;;;;;;5081206;28;20024;-76
2021/10/10 05:19:56;;;;;;;55.78;37.95;;;8.10;92.30;;;;;;5091294;28;20075;-76
2021/10/10 05:22:22;;;;;;;56.53;38.28;;;8.10;92.40;;;;;;5085797;28;20052;-77
2021/10/10 05:24:48;;;;;;;53.03;37.85;;;8.10;92.40;;;;;;5057157;28;20024;-77
2021/10/10 05:27:14;;;;;;;61.85;39.92;;;8.10;92.30;;;;;;5072315;28;20037;-76
2021/10/10 05:29:39;;;;;;;57.58;37.67;;;8.00;92.30;;;;;;5054361;28;20029;-75
2021/10/10 05:32:05;;;;;;;53.97;37.20;;;8.00;92.30;;;;;;5073030;28;20021;-76
2021/10/10 05:34:32;;;;;;;56.85;37.60;;;8.00;92.30;;;;;;5054099;28;20024;-75
2021/10/10 05:36:57;;;;;;;59.67;38.70;;;8.00;92.40;;;;;;5072507;28;20115;-75
2021/10/10 05:39:23;;;;;;;55.90;36.38;;;8.00;92.40;;;;;;5072714;28;20121;-76
2021/10/10 05:41:49;;;;;;;51.17;36.92;;;8.00;92.40;;;;;;5054505;28;20021;-75
2021/10/10 05:44:14;;;;;;;58.17;39.30;;;8.00;92.50;;;;;;5072173;28;20033;-75
2021/10/10 05:46:40;;;;;;;56.72;38.70;;;8.00;92.50;;;;;;5054582;28;20033;-75
2021/10/10 05:49:05;;;;;;;57.45;38.83;;;8.00;92.50;;;;;;5054609;28;20388;-76
2021/10/10 05:51:31;;;;;;;52.40;36.60;;;8.00;92.50;;;;;;5073143;28;20056;-76
2021/10/10 05:53:57;;;;;;;64.90;40.72;;;7.90;92.50;;;;;;5076330;28;20031;-76
2021/10/10 05:56:22;;;;;;;59.28;40.47;;;7.90;92.60;;;;;;5058018;28;20422;-77
2021/10/10 05:58:51;;;;;;;60.28;39.03;;;8.00;92.70;;;;;;5059391;28;20020;-77
2021/10/10 06:01:16;;;;;;;56.50;37.90;;;8.00;92.70;;;;;;5057750;28;20047;-77
2021/10/10 06:03:42;;;;;;;55.88;38.38;;;7.90;92.60;;;;;;5076092;28;20472;-77
2021/10/10 06:06:08;;;;;;;58.47;37.08;;;8.00;92.50;;;;;;5058289;28;20025;-77
2021/10/10 06:08:33;;;;;;;48.92;36.03;;;8.00;92.50;;;;;;5058252;28;20484;-76
2021/10/10 06:10:59;;;;;;;55.75;38.70;;;8.00;92.40;;;;;;5075932;28;20029;-77
2021/10/10 06:13:24;;;;;;;53.33;37.38;;;8.00;92.40;;;;;;5059025;28;20020;-76
2021/10/10 06:15:50;;;;;;;48.88;34.65;;;8.20;92.40;;;;;;5080227;28;20020;-76
2021/10/10 06:18:16;;;;;;;47.70;33.70;;;8.30;92.10;;;;;;5085318;28;20056;-76
2021/10/10 06:20:41;;;;;;;45.83;32.90;;;8.40;91.80;;;;;;5059831;28;20032;-76
2021/10/10 06:23:07;;;;;;;45.25;32.08;;;8.50;91.60;;;;;;5057732;28;20012;-76
2021/10/10 06:25:32;;;;;;;45.88;31.70;;;8.70;91.30;;;;;;5074971;28;20424;-75
2021/10/10 06:27:58;;;;;;;45.65;31.33;;;8.90;91.10;;;;;;5057482;28;20465;-76
2021/10/10 06:30:24;;;;;;;40.38;31.40;;;9.10;91.00;;;;;;5057314;28;20435;-76
2021/10/10 06:32:50;;;;;;;41.13;31.63;;;9.30;90.40;;;;;;5057475;28;20020;-76
2021/10/10 06:35:15;;;;;;;52.28;33.88;;;9.30;90.20;;;;;;5074973;28;20043;-76
2021/10/10 06:37:41;;;;;;;52.45;33.78;;;9.50;90.20;;;;;;5075254;28;20465;-76
2021/10/10 06:40:07;;;;;;;49.47;34.72;;;9.50;89.90;;;;;;5076474;28;20024;-76
2021/10/10 06:42:32;;;;;;;51.67;34.40;;;9.50;89.70;;;;;;5057092;28;20056;-76
2021/10/10 06:44:58;;;;;;;50.22;34.17;;;9.50;90.00;;;;;;5056882;28;20082;-75
2021/10/10 06:47:23;;;;;;;43.05;32.20;;;9.70;90.50;;;;;;5074932;28;20024;-76
2021/10/10 06:49:49;;;;;;;36.53;28.35;;;10.00;90.30;;;;;;5075148;28;20029;-76
2021/10/10 06:52:15;;;;;;;39.47;30.80;;;10.30;88.70;;;;;;5056848;28;20025;-77
2021/10/10 06:54:41;;;;;;;39.85;29.92;;;10.40;87.80;;;;;;5075034;28;20024;-76
2021/10/10 06:57:06;;;;;;;42.30;30.95;;;10.60;87.90;;;;;;5056975;28;20056;-76
2021/10/10 06:59:32;;;;;;;40.70;29.00;;;10.70;87.40;;;;;;5056678;28;20666;-76
2021/10/10 07:01:58;;;;;;;44.10;30.30;;;10.90;87.30;;;;;;5055875;28;20036;-76
2021/10/10 07:04:23;;;;;;;40.33;30.77;;;11.00;86.60;;;;;;5074739;28;20078;-76
2021/10/10 07:06:49;;;;;;;43.30;31.38;;;11.00;86.40;;;;;;5058549;28;20048;-77
2021/10/10 07:09:15;;;;;;;42.40;30.48;;;10.90;86.60;;;;;;5085198;28;20021;-76
2021/10/10 07:11:41;;;;;;;47.90;32.85;;;10.90;86.90;;;;;;5072588;28;20043;-76
2021/10/10 07:14:07;;;;;;;43.50;28.40;;;10.90;87.00;;;;;;5082023;28;20028;-76
2021/10/10 07:16:34;;;;;;;37.60;28.05;;;11.10;87.10;;;;;;5075417;28;20108;-76
2021/10/10 07:19:01;;;;;;;42.60;28.98;;;11.20;87.30;;;;;;5074930;28;20381;-77
2021/10/10 07:24:55;;;;;;;36.42;26.85;;;11.60;86.60;;;;;;5074715;28;20570;-78
2021/10/10 07:26:52;;;;;;;36.50;26.30;;;11.80;85.90;;;;;;5059963;28;20411;-78
2021/10/10 07:29:17;;;;;;;36.70;25.83;;;12.00;85.20;;;;;;5056765;28;20035;-77
2021/10/10 07:31:43;;;;;;;33.78;24.73;;;12.00;84.00;;;;;;5056322;28;20025;-77
2021/10/10 07:34:11;;;;;;;36.88;25.92;;;12.10;83.50;;;;;;5056432;28;20017;-78
2021/10/10 07:36:37;;;;;;;35.20;27.17;;;12.10;83.00;;;;;;5056159;28;20024;-79
2021/10/10 07:39:03;;;;;;;36.45;25.55;;;12.00;83.10;;;;;;5056070;28;20021;-77
2021/10/10 07:41:30;;;;;;;31.60;25.30;;;12.10;83.90;;;;;;5056090;28;20050;-76
2021/10/10 07:43:55;;;;;;;35.15;25.58;;;12.30;83.50;;;;;;5056067;28;20419;-77
2021/10/10 07:46:23;;;;;;;32.33;23.92;;;12.50;82.50;;;;;;5073925;28;20021;-77
2021/10/10 07:48:49;;;;;;;35.05;24.80;;;12.70;82.10;;;;;;5056288;28;20063;-76
2021/10/10 07:51:16;;;;;;;34.20;25.98;;;12.80;81.60;;;;;;5057042;28;20028;-76
2021/10/10 07:53:42;;;;;;;37.08;25.50;;;13.00;81.10;;;;;;5060854;28;20029;-76
2021/10/10 07:56:07;;;;;;;35.58;25.45;;;13.10;80.70;;;;;;5085023;28;20051;-77
2021/10/10 07:58:33;;;;;;;32.08;23.85;;;13.30;80.60;;;;;;5068776;28;20111;-77
2021/10/10 08:00:59;;;;;;;32.40;25.15;;;13.40;80.30;;;;;;5079670;28;20191;-77
2021/10/10 08:03:24;;;;;;;34.53;24.88;;;13.50;79.40;;;;;;5096674;28;20055;-77
2021/10/10 08:05:50;;;;;;;35.38;25.42;;;13.50;79.20;;;;;;5057930;28;20024;-76
2021/10/10 08:08:16;;;;;;;35.90;24.88;;;13.60;78.80;;;;;;5056661;28;20051;-76
2021/10/10 08:10:42;;;;;;;30.65;24.73;;;13.70;79.30;;;;;;5074290;28;20044;-76
2021/10/10 08:13:08;;;;;;;35.78;26.83;;;13.90;79.10;;;;;;5074087;28;20032;-78
2021/10/10 08:15:34;;;;;;;36.10;26.55;;;14.00;78.80;;;;;;5073172;28;20082;-77
2021/10/10 08:18:00;;;;;;;35.53;27.52;;;14.00;78.30;;;;;;5074422;28;20028;-76
2021/10/10 08:20:26;;;;;;;38.33;26.80;;;14.20;78.30;;;;;;5056192;28;20038;-76
2021/10/10 08:22:52;;;;;;;36.00;26.85;;;14.20;77.40;;;;;;5063694;28;20089;-76
2021/10/10 08:25:18;;;;;;;39.22;29.73;;;14.30;77.30;;;;;;5062975;28;20108;-76
2021/10/10 08:27:45;;;;;;;36.55;27.45;;;14.40;77.10;;;;;;5073328;28;20173;-76
2021/10/10 08:30:13;;;;;;;36.90;26.75;;;14.50;78.20;;;;;;5073318;28;20438;-76
2021/10/10 08:32:39;;;;;;;29.55;24.23;;;14.50;77.30;;;;;;5055135;28;20450;-75
2021/10/10 08:35:07;;;;;;;31.95;23.85;;;14.50;77.40;;;;;;5073340;28;20048;-77
2021/10/10 08:37:34;;;;;;;29.63;23.13;;;14.50;77.60;;;;;;5054954;28;20032;-76
2021/10/10 08:40:00;;;;;;;32.22;25.27;;;14.50;78.20;;;;;;5055530;28;20039;-77
2021/10/10 08:42:31;;;;;;;36.53;27.83;;;14.50;78.00;;;;;;5073174;28;20380;-77
2021/10/10 08:45:20;;;;;;;35.03;27.55;;;14.50;78.20;;;;;;5055377;28;20029;-76
2021/10/10 08:47:46;;;;;;;35.95;26.83;;;14.50;78.10;;;;;;5055462;28;20117;-76
2021/10/10 08:50:17;;;;;;;31.17;25.50;;;;;;;;;;5055517;28;20021;-77
2021/10/10 08:52:44;;;;;;;34.08;26.38;;;14.80;78.80;;;;;;5073070;28;20025;-76
2021/10/10 08:55:11;;;;;;;35.78;27.25;;;15.00;78.20;;;;;;5074441;28;20096;-75
2021/10/10 08:57:37;;;;;;;36.10;27.52;;;15.10;76.90;;;;;;5058596;28;20024;-77
2021/10/10 09:00:07;;;;;;;35.20;26.42;;;15.10;76.80;;;;;;5064905;28;20025;-76
2021/10/10 09:02:33;;;;;;;38.95;26.55;;;15.10;78.60;;;;;;5067423;28;20045;-76
2021/10/10 09:05:08;;;;;;;36.25;28.25;;;15.40;77.10;;;;;;5063265;28;20017;-76
2021/10/10 09:07:36;;;;;;;39.80;28.83;;;15.70;76.00;;;;;;5055117;28;20058;-76
2021/10/10 09:10:19;;;;;;;41.22;28.17;;;15.90;75.40;;;;;;5073482;28;20025;-76
2021/10/10 09:12:49;;;;;;;37.45;28.77;;;16.30;73.10;;;;;;5054694;28;20044;-75
2021/10/10 09:15:21;;;;;;;42.78;28.23;;;16.40;73.00;;;;;;5054859;28;20385;-76
2021/10/10 09:17:57;;;;;;;39.85;28.42;;;16.50;71.30;;;;;;5054811;28;20025;-77
2021/10/10 09:20:43;;;;;;;38.05;28.35;;;16.40;70.00;;;;;;5073095;28;20047;-74
2021/10/10 09:23:33;;;;;;;43.15;30.33;;;16.30;69.10;;;;;;5072739;28;20045;-75
2021/10/10 09:26:01;;;;;;;40.50;28.70;;;16.30;69.70;;;;;;5057012;28;20457;-75
2021/10/10 09:28:29;;;;;;;39.25;27.00;;;16.40;69.70;;;;;;5058818;28;20020;-75
2021/10/10 09:31:01;;;;;;;41.78;28.55;;;16.50;71.10;;;;;;5074359;28;20354;-74
2021/10/10 09:33:52;;;;;;;36.42;28.92;;;16.50;71.70;;;;;;5075193;28;20034;-76
2021/10/10 09:36:24;;;;;;;41.65;27.05;;;16.70;70.20;;;;;;5057779;28;20024;-76
2021/10/10 09:39:12;;;;;;;33.92;26.58;;;16.80;68.70;;;;;;5057626;28;20029;-76
2021/10/10 09:41:47;;;;;;;36.97;26.48;;;17.00;70.10;;;;;;5055078;28;20108;-76
2021/10/10 09:44:34;;;;;;;29.83;23.08;;;17.10;71.50;;;;;;5065893;28;20015;-76
2021/10/10 09:47:01;;;;;;;31.63;26.27;;;17.30;72.10;;;;;;5061512;28;20024;-74
2021/10/10 09:49:30;;;;;;;34.63;26.90;;;17.40;71.60;;;;;;5074186;28;20358;-76
2021/10/10 09:52:07;;;;;;;37.47;27.98;;;17.40;70.60;;;;;;5086993;28;20024;-75
2021/10/10 09:54:49;;;;;;;32.50;26.45;;;17.30;70.90;;;;;;5086733;28;20025;-76
2021/10/10 09:57:15;;;;;;;37.70;28.52;;;17.20;71.70;;;;;;5058609;28;20020;-76
2021/10/10 09:59:41;;;;;;;37.80;29.42;;;17.30;71.30;;;;;;5076570;28;20104;-76
2021/10/10 10:02:07;;;;;;;33.80;26.92;;;17.30;71.30;;;;;;5058036;28;20455;-76
2021/10/10 10:04:50;;;;;;;32.50;27.52;;;17.30;71.60;;;;;;5075969;28;20457;-76
2021/10/10 10:07:18;;;;;;;35.00;27.33;;;17.10;71.30;;;;;;5057879;28;20029;-76
2021/10/10 10:09:50;;;;;;;36.80;27.98;;;17.10;72.50;;;;;;5075908;28;20029;-76
2021/10/10 10:12:18;;;;;;;31.80;25.60;;;17.20;72.20;;;;;;5057789;28;20028;-76
2021/10/10 10:14:48;;;;;;;34.72;27.25;;;17.40;71.50;;;;;;5075838;28;20358;-77
2021/10/10 10:17:13;;;;;;;;;;;17.60;70.30;;;;;;5058287;28;20020;-76
2021/10/10 10:19:39;;;;;;;30.48;25.02;;;17.70;69.70;;;;;;5076324;28;19904;-77
2021/10/10 10:22:08;;;;;;;32.85;27.00;;;17.90;70.50;;;;;;5058401;28;20028;-77
2021/10/10 10:24:37;;;;;;;31.70;25.90;;;18.00;68.30;;;;;;5078781;28;20021;-76
2021/10/10 10:27:03;;;;;;;37.40;26.63;;;18.20;68.50;;;;;;5081511;28;20055;-76
2021/10/10 10:29:31;;;;;;;35.85;27.55;;;18.50;67.80;;;;;;5057660;28;20033;-76
2021/10/10 10:31:59;;;;;;;31.55;26.05;;;18.70;67.40;;;;;;5075344;28;20016;-75
2021/10/10 10:34:28;;;;;;;34.42;25.52;;;18.80;66.60;;;;;;5057212;28;20032;-76
2021/10/10 10:36:56;;;;;;;31.27;23.90;;;18.90;67.00;;;;;;5074067;28;20028;-76
2021/10/10 10:39:44;;;;;;;36.55;25.10;;;19.00;65.90;;;;;;5057148;28;20028;-76
2021/10/10 10:42:14;;;;;;;33.90;24.67;;;19.10;66.40;;;;;;5075185;28;20025;-76
2021/10/10 10:44:48;;;;;;;;;;;19.40;65.30;;;;;;5076401;28;20039;-76
2021/10/10 10:47:19;;;;;;;31.40;25.80;;;19.50;64.70;;;;;;5057377;28;19912;-76
2021/10/10 10:49:54;;;;;;;33.95;26.63;;;19.70;64.50;;;;;;5082108;28;20147;-77
2021/10/10 10:52:30;;;;;;;28.35;23.65;;;19.80;63.30;;;;;;5078542;28;20040;-77
2021/10/10 10:55:28;;;;;;;31.95;25.27;;;19.90;63.90;;;;;;5071241;28;20502;-76
2021/10/10 10:57:58;;;;;;;32.17;24.15;;;20.00;63.10;;;;;;5057935;28;20032;-76
2021/10/10 11:00:34;;;;;;;31.90;25.45;;;20.10;64.70;;;;;;5074736;28;20436;-76
2021/10/10 11:03:13;;;;;;;31.10;24.02;;;20.10;62.60;;;;;;5056681;28;20028;-76
2021/10/10 11:05:41;;;;;;;32.03;25.85;;;20.30;62.80;;;;;;5074826;28;20020;-75
2021/10/10 11:08:15;;;;;;;27.55;22.35;;;20.50;67.00;;;;;;5056666;28;20209;-75
2021/10/10 11:11:04;;;;;;;33.08;24.30;;;20.60;62.40;;;;;;5074408;28;20025;-77
2021/10/10 11:13:35;;;;;;;20.50;15.23;;;20.80;60.80;;;;;;5076412;28;20025;-74
2021/10/10 11:16:18;;;;;;;12.77;9.00;;;20.90;64.00;;;;;;5056698;28;20024;-76
2021/10/10 11:18:53;;;;;;;12.95;8.43;;;21.00;72.40;;;;;;5056751;28;20024;-77
2021/10/10 11:21:22;;;;;;;13.43;10.95;;;21.20;73.20;;;;;;5062640;28;20051;-79
2021/10/10 11:23:57;;;;;;;13.60;10.43;;;21.50;73.10;;;;;;5075320;28;20028;-76
2021/10/10 11:26:24;;;;;;;17.15;12.07;;;21.60;72.00;;;;;;5057189;28;20385;-78
2021/10/10 11:28:58;;;;;;;13.73;9.88;;;21.80;71.30;;;;;;5056384;28;20085;-76
2021/10/10 11:31:27;;;;;;;13.90;8.90;;;21.80;72.30;;;;;;5056760;28;20372;-77
2021/10/10 11:33:57;;;;;;;16.10;10.45;;;22.00;73.60;;;;;;5053628;28;20017;-77
2021/10/10 11:36:47;;;;;;;13.45;9.80;;;22.10;75.10;;;;;;5059844;28;20028;-76
2021/10/10 11:39:14;;;;;;;15.07;9.63;;;22.40;74.90;;;;;;5065692;28;20033;-76
2021/10/10 11:41:42;;;;;;;13.68;9.60;;;22.50;73.90;;;;;;5063803;28;20077;-76
2021/10/10 11:44:17;;;;;;;16.10;10.40;;;22.50;74.60;;;;;;5066050;28;20025;-76
2021/10/10 11:46:47;;;;;;;13.75;9.27;;;22.50;75.60;;;;;;5045895;28;20013;-77
2021/10/10 11:52:38;;;;;;;13.30;9.15;;;22.60;76.90;;;;;;5055136;28;19904;-77
2021/10/10 11:57:37;;;;;;;13.90;9.38;;;23.00;74.30;;;;;;5054138;28;20060;-76
2021/10/10 12:00:07;;;;;;;12.32;8.48;;;23.00;76.90;;;;;;5054976;28;20127;-75
2021/10/10 12:02:41;;;;;;;14.23;10.35;;;23.00;77.20;;;;;;5065630;28;20481;-75
2021/10/10 12:05:18;;;;;;;11.70;8.55;;;23.00;76.60;;;;;;5036224;28;20025;-76
2021/10/10 12:07:45;;;;;;;15.93;10.77;;;23.20;77.30;;;;;;5053741;28;20107;-77
2021/10/10 12:10:14;;;;;;;25.48;18.13;;;23.30;77.60;;;;;;5036186;28;20116;-77
2021/10/10 12:12:39;;;;;;;30.08;18.98;;;23.30;67.40;;;;;;5035733;28;20021;-75
2021/10/10 12:15:06;;;;;;;27.45;20.42;;;23.00;54.60;;;;;;5035766;28;20021;-76
2021/10/10 12:17:43;;;;;;;28.15;21.70;;;22.80;51.90;;;;;;5036183;28;20021;-76
2021/10/10 12:20:15;;;;;;;23.52;17.92;;;22.70;51.90;;;;;;5035606;28;20021;-75
2021/10/10 12:22:59;;;;;;;25.73;19.15;;;22.60;57.90;;;;;;5035529;28;20025;-74
2021/10/10 12:25:34;;;;;;;36.53;21.98;;;22.60;54.20;;;;;;5035783;28;20431;-75
2021/10/10 12:28:18;;;;;;;19.45;14.40;;;22.70;50.50;;;;;;5066700;28;20029;-77
2021/10/10 12:30:54;;;;;;;33.22;22.95;;;22.60;55.90;;;;;;5057669;28;20470;-77
2021/10/10 12:33:40;;;;;;;32.95;22.77;;;22.70;51.80;;;;;;5035464;28;20481;-77
2021/10/10 12:36:10;;;;;;;18.75;12.48;;;22.80;52.80;;;;;;5054727;28;20025;-76
2021/10/10 12:38:41;;;;;;;19.90;13.25;;;22.90;61.90;;;;;;5042224;28;20025;-74
2021/10/10 12:41:22;;;;;;;24.05;17.90;;;23.00;68.50;;;;;;5052160;28;20116;-76
2021/10/10 12:44:00;;;;;;;23.83;17.10;;;23.10;68.00;;;;;;5053992;28;20056;-76
2021/10/10 12:46:27;;;;;;;26.85;18.55;;;23.10;63.10;;;;;;5041353;28;20033;-76
2021/10/10 12:49:00;;;;;;;32.08;23.25;;;23.00;67.80;;;;;;5052993;28;20033;-76